Time;durP1;ratioP1;P1;durP2;ratioP2;P2;SDS_P1;SDS_P2;PMS_P1;PMS_P2;Temp;Humidity;BMP_temperature;BMP_pressure;BME280_temperature;BME280_humidity;BME280_pressure;Samples;Min_cycle;Max_cycle;Signal;HPM_P1;HPM_P2
2023/11/09 00:00:56;;;;;;;0.00;0.00;;;;;;;5.54;100.00;98952.97;4956681;28;20027;-79
2023/11/09 00:03:24;;;;;;;0.00;0.00;;;;;;;5.34;100.00;98930.13;4969600;28;20100;-79
2023/11/09 00:05:50;;;;;;;0.00;0.00;;;;;;;5.51;100.00;98962.44;4955981;28;20038;-78
2023/11/09 00:08:16;;;;;;;0.00;0.00;;;;;;;5.56;100.00;98970.59;4970280;28;20081;-75
2023/11/09 00:10:41;;;;;;;0.00;0.00;;;;;;;5.58;100.00;98968.44;4954652;28;20491;-76
2023/11/09 00:13:07;;;;;;;0.10;0.10;;;;;;;5.54;100.00;98958.38;4986010;28;20034;-77
2023/11/09 00:15:32;;;;;;;0.00;0.00;;;;;;;5.46;100.00;98935.34;4953116;28;20033;-77
2023/11/09 00:17:59;;;;;;;0.00;0.00;;;;;;;5.52;100.00;98930.72;4951920;28;20030;-77
2023/11/09 00:20:29;;;;;;;0.00;0.00;;;;;;;5.76;100.00;98952.72;4988045;28;20026;-76
2023/11/09 00:22:54;;;;;;;0.00;0.00;;;;;;;5.74;100.00;98938.63;4987510;28;20114;-78
2023/11/09 00:25:21;;;;;;;0.00;0.00;;;;;;;5.59;100.00;98920.41;4953173;28;20117;-78
2023/11/09 00:27:46;;;;;;;0.00;0.00;;;;;;;5.80;100.00;98950.25;4991794;28;20113;-75
2023/11/09 00:30:14;;;;;;;0.00;0.00;;;;;;;5.62;100.00;98936.16;4989472;28;20106;-78
2023/11/09 00:32:39;;;;;;;0.00;0.00;;;;;;;5.51;100.00;98918.25;4958675;28;20058;-77
2023/11/09 00:35:08;;;;;;;0.00;0.00;;;;;;;5.57;100.00;98934.25;4971775;28;20068;-77
2023/11/09 00:37:34;;;;;;;0.00;0.00;;;;;;;5.64;100.00;98950.28;4988655;28;20019;-76
2023/11/09 00:39:59;;;;;;;0.00;0.00;;;;;;;5.65;100.00;98943.78;4949778;28;20034;-75
2023/11/09 00:42:25;;;;;;;0.03;0.03;;;;;;;5.68;100.00;98945.94;4949432;28;20039;-76
2023/11/09 00:44:50;;;;;;;0.00;0.00;;;;;;;5.39;100.00;98903.06;4955852;28;20389;-76
2023/11/09 00:47:16;;;;;;;0.00;0.00;;;;;;;5.70;100.00;98942.97;4951301;28;20038;-76
2023/11/09 00:49:42;;;;;;;0.00;0.00;;;;;;;5.69;100.00;98941.31;4952597;28;20032;-76
2023/11/09 00:52:07;;;;;;;0.00;0.00;;;;;;;5.74;100.00;98944.84;4971831;28;20026;-77
2023/11/09 00:54:33;;;;;;;0.00;0.00;;;;;;;5.76;100.00;98948.09;4962945;28;20027;-75
2023/11/09 00:56:58;;;;;;;0.00;0.00;;;;;;;5.62;100.00;98936.16;4961709;28;20057;-77
2023/11/09 00:59:24;;;;;;;0.00;0.00;;;;;;;5.62;100.00;98925.31;4974727;28;20037;-76
2023/11/09 01:01:50;;;;;;;0.00;0.00;;;;;;;5.52;100.00;98919.88;4952373;28;20022;-77
2023/11/09 01:04:15;;;;;;;0.00;0.00;;;;;;;5.64;100.00;98933.19;4953942;28;20061;-77
2023/11/09 01:06:40;;;;;;;0.00;0.00;;;;;;;5.59;100.00;98933.97;4937093;28;20038;-76
2023/11/09 01:09:06;;;;;;;0.00;0.00;;;;;;;5.49;100.00;98909.56;4940297;28;20030;-77
2023/11/09 01:11:32;;;;;;;0.00;0.00;;;;;;;5.52;100.00;98906.31;4946947;28;20035;-77
2023/11/09 01:13:58;;;;;;;0.00;0.00;;;;;;;5.49;100.00;98887.88;4965667;28;20034;-78
2023/11/09 01:16:23;;;;;;;0.00;0.00;;;;;;;5.72;100.00;98909.06;4950267;28;20034;-78
2023/11/09 01:18:49;;;;;;;0.00;0.00;;;;;;;5.62;100.00;98903.59;4970144;28;20127;-76
2023/11/09 01:21:15;;;;;;;0.10;0.10;;;;;;;5.42;100.00;98883.53;4956897;28;20129;-77
2023/11/09 01:23:41;;;;;;;0.00;0.00;;;;;;;5.36;100.00;98878.38;4974580;28;20481;-78
2023/11/09 01:26:08;;;;;;;0.00;0.00;;;;;;;5.24;100.00;98875.91;4970667;28;20030;-77
2023/11/09 01:28:34;;;;;;;0.00;0.00;;;;;;;5.02;100.00;98863.44;4981696;28;20080;-77
2023/11/09 01:30:59;;;;;;;0.00;0.00;;;;;;;5.15;100.00;98893.78;4984958;28;20124;-77
2023/11/09 01:33:25;;;;;;;0.00;0.00;;;;;;;5.09;100.00;98878.59;4983837;28;20027;-78
2023/11/09 01:35:50;;;;;;;0.00;0.00;;;;;;;5.21;100.00;98888.13;4952646;28;20035;-76
2023/11/09 01:38:16;;;;;;;0.00;0.00;;;;;;;5.30;100.00;98883.00;4966552;28;20050;-76
2023/11/09 01:40:43;;;;;;;0.00;0.00;;;;;;;5.21;100.00;98857.47;4932788;28;20038;-77
2023/11/09 01:43:14;;;;;;;0.00;0.00;;;;;;;5.44;100.00;98879.75;4989285;28;20041;-77
2023/11/09 01:45:40;;;;;;;0.00;0.00;;;;;;;5.54;100.00;98872.44;4981841;28;20372;-76
2023/11/09 01:48:07;;;;;;;0.00;0.00;;;;;;;5.73;100.00;98882.75;4961543;28;20041;-76
2023/11/09 01:50:32;;;;;;;0.00;0.00;;;;;;;5.76;100.00;98866.72;4952356;28;20642;-76
2023/11/09 01:52:59;;;;;;;0.00;0.00;;;;;;;5.92;100.00;98858.56;4935133;28;20037;-76
2023/11/09 01:55:26;;;;;;;0.00;0.00;;;;;;;6.10;100.00;98871.63;4950146;28;20499;-75
2023/11/09 01:57:53;;;;;;;0.00;0.00;;;;;;;6.17;100.00;98865.06;4953666;28;20034;-77
2023/11/09 02:00:19;;;;;;;0.00;0.00;;;;;;;6.33;100.00;98865.84;4950789;28;20421;-77
2023/11/09 02:02:46;;;;;;;0.00;0.00;;;;;;;6.32;100.00;98840.59;4961286;28;20030;-76
2023/11/09 02:05:26;;;;;;;0.00;0.00;;;;;;;6.55;100.00;98865.50;4985376;28;20050;-76
2023/11/09 02:07:55;;;;;;;0.00;0.00;;;;;;;6.57;100.00;98844.31;4971319;28;20102;-76
2023/11/09 02:10:22;;;;;;;0.00;0.00;;;;;;;6.41;100.00;98800.09;4962040;28;20031;-76
2023/11/09 02:12:48;;;;;;;0.00;0.00;;;;;;;6.72;100.00;98835.28;4972996;28;20066;-76
2023/11/09 02:15:14;;;;;;;0.00;0.00;;;;;;;6.89;100.00;98848.50;4971030;28;20088;-76
2023/11/09 02:17:40;;;;;;;0.08;0.08;;;;;;;6.89;100.00;98841.19;4970877;28;20393;-75
2023/11/09 02:20:08;;;;;;;0.00;0.00;;;;;;;6.95;100.00;98850.09;4965660;28;20787;-75
2023/11/09 02:22:36;;;;;;;0.00;0.00;;;;;;;7.05;100.00;98852.75;4958464;28;20054;-76
2023/11/09 02:25:03;;;;;;;0.10;0.10;;;;;;;7.04;100.00;98851.16;4959261;28;20026;-76
2023/11/09 02:27:29;;;;;;;0.00;0.00;;;;;;;7.08;100.00;98852.22;4952863;28;20031;-76
2023/11/09 02:29:54;;;;;;;0.00;0.00;;;;;;;7.07;100.00;98845.13;4985358;28;20092;-76
2023/11/09 02:32:22;;;;;;;0.00;0.00;;;;;;;7.02;100.00;98828.84;4952495;28;20034;-75
2023/11/09 02:34:47;;;;;;;0.00;0.00;;;;;;;7.09;99.81;98829.34;4937703;28;20030;-75
2023/11/09 02:37:13;;;;;;;0.00;0.00;;;;;;;7.16;98.76;98831.75;4946086;28;20038;-75
2023/11/09 02:39:39;;;;;;;0.00;0.00;;;;;;;7.02;98.28;98798.94;4988819;28;20022;-77
2023/11/09 02:42:05;;;;;;;0.00;0.00;;;;;;;6.98;98.08;98797.91;4967477;28;20038;-78
2023/11/09 02:44:39;;;;;;;0.00;0.00;;;;;;;6.99;98.23;98810.38;4943687;28;20054;-78
2023/11/09 02:47:04;;;;;;;0.10;0.10;;;;;;;6.90;98.44;98787.63;4972136;28;20018;-77
2023/11/09 02:49:32;;;;;;;0.00;0.00;;;;;;;6.95;98.31;98799.28;4932684;28;20476;-76
2023/11/09 02:51:57;;;;;;;0.00;0.00;;;;;;;6.93;98.38;98771.56;4953290;28;20033;-78
2023/11/09 02:54:23;;;;;;;0.00;0.00;;;;;;;7.03;98.39;98778.84;4950681;28;20031;-76
2023/11/09 02:56:49;;;;;;;0.00;0.00;;;;;;;7.01;98.67;98764.72;4932672;28;20034;-77
2023/11/09 02:59:16;;;;;;;0.00;0.00;;;;;;;7.13;98.51;98767.88;4954926;28;20034;-77
2023/11/09 03:05:09;;;;;;;0.00;0.00;;;;;;;7.02;98.07;98722.84;4955290;28;20637;-79
2023/11/09 03:07:34;;;;;;;0.00;0.00;;;;;;;7.20;97.84;98750.44;4986927;28;20041;-75
2023/11/09 03:10:02;;;;;;;0.00;0.00;;;;;;;7.19;97.51;98744.19;4967460;28;20022;-78
2023/11/09 03:12:28;;;;;;;0.00;0.00;;;;;;;7.41;98.33;98779.09;4953025;28;20069;-79
2023/11/09 03:14:53;;;;;;;0.00;0.00;;;;;;;7.15;98.19;98743.97;4967918;28;20092;-79
2023/11/09 03:17:20;;;;;;;0.00;0.00;;;;;;;7.28;99.16;98764.22;4963636;28;20043;-77
2023/11/09 03:19:48;;;;;;;0.00;0.00;;;;;;;7.20;98.65;98755.88;4980778;28;20073;-78
2023/11/09 03:22:14;;;;;;;0.00;0.00;;;;;;;7.29;99.17;98762.34;4984112;28;20029;-77
2023/11/09 03:24:40;;;;;;;0.00;0.00;;;;;;;7.05;99.03;98727.72;4951904;28;20030;-77
2023/11/09 03:27:09;;;;;;;0.05;0.05;;;;;;;7.06;99.03;98723.91;4966848;28;20026;-78
2023/11/09 03:29:37;;;;;;;0.00;0.00;;;;;;;7.15;99.57;98732.25;4944110;28;20022;-78
2023/11/09 03:32:13;;;;;;;;;;;;;;;;;;;;;
2023/11/09 03:34:38;;;;;;;0.00;0.00;;;;;;;6.89;99.82;98682.75;4959587;28;20682;-77
2023/11/09 03:37:04;;;;;;;0.00;0.00;;;;;;;7.06;99.69;98709.53;4991796;28;20048;-78
2023/11/09 03:39:35;;;;;;;0.00;0.00;;;;;;;7.31;100.00;98738.38;4959914;28;20041;-78
2023/11/09 03:42:01;;;;;;;0.00;0.00;;;;;;;7.21;99.64;98720.25;4968923;28;20056;-77
2023/11/09 03:44:35;;;;;;;0.00;0.00;;;;;;;7.23;100.00;98714.53;4957647;28;20042;-77
2023/11/09 03:47:00;;;;;;;0.00;0.00;;;;;;;7.22;100.00;98721.06;4970653;28;20034;-77
2023/11/09 03:49:26;;;;;;;0.00;0.00;;;;;;;7.15;100.00;98711.34;4973347;28;20038;-76
2023/11/09 03:51:54;;;;;;;0.00;0.00;;;;;;;7.13;100.00;98701.84;4946705;28;20034;-77
2023/11/09 03:54:22;;;;;;;0.00;0.00;;;;;;;7.18;100.00;98704.50;4960824;28;20023;-77
2023/11/09 03:56:47;;;;;;;0.10;0.10;;;;;;;7.20;100.00;98704.22;4975978;28;20034;-78
2023/11/09 03:59:12;;;;;;;0.00;0.00;;;;;;;7.31;100.00;98709.28;4956828;28;20495;-78
2023/11/09 04:01:38;;;;;;;0.00;0.00;;;;;;;7.20;100.00;98690.63;4975706;28;20022;-77
2023/11/09 04:04:06;;;;;;;0.00;0.00;;;;;;;7.24;100.00;98691.69;4971007;28;21548;-76
2023/11/09 04:06:34;;;;;;;0.10;0.10;;;;;;;7.30;100.00;98701.41;4962357;28;20640;-76
2023/11/09 04:09:00;;;;;;;0.00;0.00;;;;;;;7.34;100.00;98702.47;4971020;28;20066;-78
2023/11/09 04:11:26;;;;;;;0.00;0.00;;;;;;;7.29;100.00;98700.59;4960286;28;20044;-79
2023/11/09 04:13:51;;;;;;;0.00;0.00;;;;;;;7.21;100.00;98670.50;4967562;28;20048;-78
2023/11/09 04:16:19;;;;;;;0.10;0.10;;;;;;;7.33;100.00;98685.34;4951568;28;20422;-77
2023/11/09 04:18:47;;;;;;;0.00;0.00;;;;;;;7.29;100.00;98672.63;4972367;28;20045;-77
2023/11/09 04:21:12;;;;;;;0.00;0.00;;;;;;;7.39;100.00;98677.94;4969211;28;20028;-77
2023/11/09 04:23:38;;;;;;;0.00;0.00;;;;;;;7.43;100.00;98675.44;4987171;28;20026;-76
2023/11/09 04:26:08;;;;;;;0.00;0.00;;;;;;;7.40;100.00;98679.56;4956032;28;20383;-77
2023/11/09 04:28:36;;;;;;;0.00;0.00;;;;;;;7.36;100.00;98662.22;4965884;28;20031;-78
2023/11/09 04:31:04;;;;;;;0.00;0.00;;;;;;;7.27;100.00;98647.59;4954160;28;20760;-79
2023/11/09 04:33:33;;;;;;;0.00;0.00;;;;;;;7.41;100.00;98664.88;4959260;28;20507;-78
2023/11/09 04:36:00;;;;;;;0.00;0.00;;;;;;;7.44;100.00;98664.28;4941395;28;20046;-77
2023/11/09 04:38:27;;;;;;;0.00;0.00;;;;;;;7.44;100.00;98658.84;4956056;28;20535;-77
2023/11/09 04:41:16;;;;;;;;;;;;;;;;;;;;;
2023/11/09 04:43:44;;;;;;;0.00;0.00;;;;;;;7.42;100.00;98639.28;4964685;28;20026;-77
2023/11/09 04:46:13;;;;;;;0.00;0.00;;;;;;;7.56;100.00;98657.63;4966424;28;20019;-77
2023/11/09 04:48:47;;;;;;;0.00;0.00;;;;;;;7.55;100.00;98664.16;4970226;28;20034;-78
2023/11/09 04:51:22;;;;;;;0.00;0.00;;;;;;;7.53;100.00;98661.75;4986430;28;20388;-77
2023/11/09 04:53:51;;;;;;;0.00;0.00;;;;;;;7.39;100.00;98655.38;4969779;28;20027;-77
2023/11/09 04:56:39;;;;;;;0.00;0.00;;;;;;;6.99;100.00;98639.16;4951774;28;20034;-78
2023/11/09 05:07:19;;;;;;;0.00;0.00;;;;;;;6.61;100.00;98663.41;4953922;28;20088;-77
2023/11/09 05:09:46;;;;;;;0.00;0.00;;;;;;;6.53;100.00;98655.88;4974487;28;20041;-76
2023/11/09 05:12:13;;;;;;;0.00;0.00;;;;;;;6.47;100.00;98661.31;4949200;28;20997;-77
2023/11/09 05:14:38;;;;;;;0.00;0.00;;;;;;;6.45;100.00;98659.97;4947774;28;20147;-78
2023/11/09 05:17:04;;;;;;;0.00;0.00;;;;;;;6.26;100.00;98633.50;4976857;28;20499;-77
2023/11/09 05:19:36;;;;;;;0.00;0.00;;;;;;;6.16;100.00;98628.13;4976167;28;20022;-77
2023/11/09 05:22:05;;;;;;;0.00;0.00;;;;;;;6.19;100.00;98640.31;4969705;28;20037;-77
2023/11/09 05:24:30;;;;;;;0.00;0.00;;;;;;;6.07;100.00;98627.09;4983340;28;20076;-76
2023/11/09 05:26:56;;;;;;;0.10;0.10;;;;;;;6.07;100.00;98649.59;4937889;28;20344;-76
2023/11/09 05:29:22;;;;;;;0.00;0.00;;;;;;;5.95;100.00;98640.97;4932342;28;20608;-77
2023/11/09 05:31:51;;;;;;;0.00;0.00;;;;;;;5.77;100.00;98629.66;4990853;28;20022;-77
2023/11/09 05:34:18;;;;;;;0.00;0.00;;;;;;;5.76;100.00;98636.16;4968947;28;20041;-76
2023/11/09 05:36:44;;;;;;;0.00;0.00;;;;;;;5.76;100.00;98633.44;4950853;28;20030;-78
2023/11/09 05:39:18;;;;;;;0.00;0.00;;;;;;;5.66;100.00;98617.22;4970977;28;20030;-77
2023/11/09 05:41:44;;;;;;;;;;;;;;;5.87;100.00;98638.81;4987301;28;20018;-76
2023/11/09 05:44:09;;;;;;;0.00;0.00;;;;;;;5.70;100.00;98618.28;4969460;28;19932;-77
2023/11/09 05:46:38;;;;;;;0.00;0.00;;;;;;;5.63;100.00;98612.34;4962614;28;20026;-78
2023/11/09 05:49:04;;;;;;;0.00;0.00;;;;;;;5.72;100.00;98626.97;4966189;28;20037;-78
2023/11/09 05:51:31;;;;;;;0.00;0.00;;;;;;;5.60;100.00;98607.50;4953599;28;20034;-79
2023/11/09 05:53:59;;;;;;;0.00;0.00;;;;;;;5.74;100.00;98619.38;4960181;28;20066;-77
2023/11/09 05:56:27;;;;;;;0.00;0.00;;;;;;;5.80;100.00;98611.19;4966967;28;20041;-78
2023/11/09 05:58:53;;;;;;;0.00;0.00;;;;;;;5.98;100.00;98615.22;4964909;28;20108;-78
2023/11/09 06:01:19;;;;;;;0.00;0.00;;;;;;;6.14;100.00;98637.66;4976090;28;20065;-77
2023/11/09 06:03:44;;;;;;;0.00;0.00;;;;;;;6.24;100.00;98637.59;4950503;28;20039;-77
2023/11/09 06:06:10;;;;;;;0.00;0.00;;;;;;;6.18;100.00;98612.38;4951712;28;20026;-78
2023/11/09 06:08:36;;;;;;;0.00;0.00;;;;;;;6.41;100.00;98629.88;4969967;28;20030;-78
2023/11/09 06:11:05;;;;;;;0.00;0.00;;;;;;;6.53;100.00;98628.72;4966381;28;20073;-78
2023/11/09 06:13:33;;;;;;;0.00;0.00;;;;;;;6.63;100.00;98624.00;4965647;28;20026;-77
2023/11/09 06:15:59;;;;;;;0.00;0.00;;;;;;;6.75;100.00;98618.19;4956522;28;20026;-78
2023/11/09 06:18:25;;;;;;;0.00;0.00;;;;;;;6.95;100.00;98636.22;4951773;28;20117;-77
2023/11/09 06:20:57;;;;;;;0.00;0.00;;;;;;;6.95;100.00;98619.94;4968065;28;20030;-79
2023/11/09 06:23:28;;;;;;;0.00;0.00;;;;;;;6.95;100.00;98616.38;4941115;28;20113;-79
2023/11/09 06:25:55;;;;;;;0.10;0.10;;;;;;;6.95;100.00;98600.91;4964922;28;20030;-79
2023/11/09 06:28:22;;;;;;;0.05;0.05;;;;;;;6.96;100.00;98593.56;4966982;28;20058;-79
2023/11/09 06:30:47;;;;;;;0.00;0.00;;;;;;;7.19;100.00;98621.06;4933677;28;20112;-79
2023/11/09 06:33:13;;;;;;;0.00;0.00;;;;;;;6.99;100.00;98595.69;4952655;28;20136;-79
2023/11/09 06:35:40;;;;;;;0.00;0.00;;;;;;;7.11;100.00;98619.75;4945637;28;20029;-79
2023/11/09 06:38:18;;;;;;;;;;;;;;;;;;;;;
2023/11/09 06:40:50;;;;;;;0.00;0.00;;;;;;;7.08;100.00;98604.84;4985156;28;20022;-78
2023/11/09 06:43:19;;;;;;;0.00;0.00;;;;;;;7.08;100.00;98604.84;4968556;28;20374;-78
2023/11/09 06:45:47;;;;;;;0.00;0.00;;;;;;;6.99;100.00;98603.84;4984796;28;20774;-79
2023/11/09 06:48:22;;;;;;;0.00;0.00;;;;;;;6.94;100.00;98595.75;4950697;28;20109;-78
2023/11/09 06:50:48;;;;;;;0.00;0.00;;;;;;;6.94;100.00;98615.56;4984128;28;20030;-78
2023/11/09 06:53:17;;;;;;;0.00;0.00;;;;;;;6.69;100.00;98589.47;4955596;28;20026;-78
2023/11/09 06:55:46;;;;;;;0.00;0.00;;;;;;;6.61;100.00;98581.91;4931945;28;20042;-78
2023/11/09 06:58:11;;;;;;;0.00;0.00;;;;;;;6.63;100.00;98585.19;4953046;28;20042;-79
2023/11/09 07:00:38;;;;;;;0.00;0.00;;;;;;;6.75;100.00;98604.59;4979796;28;20034;-79
2023/11/09 07:03:04;;;;;;;0.00;0.00;;;;;;;6.64;100.00;98603.06;4937721;28;20039;-77
2023/11/09 07:05:30;;;;;;;0.00;0.00;;;;;;;6.45;100.00;98590.22;4949976;28;20057;-79
2023/11/09 07:07:56;;;;;;;0.10;0.10;;;;;;;6.49;100.00;98617.59;4980497;28;20018;-76
2023/11/09 07:10:23;;;;;;;0.00;0.00;;;;;;;6.32;100.00;98611.75;4989898;28;20469;-77
2023/11/09 07:12:48;;;;;;;0.00;0.00;;;;;;;6.18;100.00;98589.88;4944593;28;20481;-75
2023/11/09 07:15:16;;;;;;;0.00;0.00;;;;;;;6.19;100.00;98605.03;4986890;28;20104;-77
2023/11/09 07:17:41;;;;;;;0.00;0.00;;;;;;;6.07;100.00;98587.19;4981828;28;20049;-77
2023/11/09 07:20:10;;;;;;;0.00;0.00;;;;;;;5.95;100.00;98570.44;4990089;28;20058;-76
2023/11/09 07:22:36;;;;;;;0.00;0.00;;;;;;;5.93;100.00;98567.19;4966480;28;20109;-77
2023/11/09 07:25:02;;;;;;;0.00;0.00;;;;;;;6.08;100.00;98585.31;4970194;28;20054;-76
2023/11/09 07:27:30;;;;;;;0.00;0.00;;;;;;;5.95;100.00;98571.22;4965975;28;20018;-78
2023/11/09 07:29:55;;;;;;;0.00;0.00;;;;;;;5.94;100.00;98585.91;4966366;28;20073;-76
2023/11/09 07:32:21;;;;;;;0.00;0.00;;;;;;;5.89;100.00;98582.41;4954098;28;20034;-75
2023/11/09 07:34:46;;;;;;;0.00;0.00;;;;;;;5.99;100.00;98592.44;4976814;28;20030;-78
2023/11/09 07:38:08;;;;;;;0.00;0.00;;;;;;;5.93;100.00;98554.44;4938083;28;20035;-77
2023/11/09 07:40:34;;;;;;;0.00;0.00;;;;;;;6.41;100.00;98599.19;4967845;28;20097;-78
2023/11/09 07:42:59;;;;;;;0.00;0.00;;;;;;;6.44;100.00;98593.22;4947440;28;20034;-78
2023/11/09 07:45:25;;;;;;;0.00;0.00;;;;;;;6.33;100.00;98559.88;4955263;28;20089;-78
2023/11/09 07:47:51;;;;;;;0.00;0.00;;;;;;;6.59;100.00;98597.69;4951916;28;20076;-76
2023/11/09 07:50:17;;;;;;;0.00;0.00;;;;;;;6.52;100.00;98589.88;4964232;28;20054;-78
2023/11/09 07:52:43;;;;;;;0.00;0.00;;;;;;;6.55;100.00;98583.06;4968036;28;20038;-78
2023/11/09 07:55:10;;;;;;;0.00;0.00;;;;;;;6.58;100.00;98582.50;4945493;28;20093;-78
2023/11/09 07:57:39;;;;;;;0.00;0.00;;;;;;;6.78;100.00;98604.03;4960471;28;20045;-76
2023/11/09 08:00:11;;;;;;;0.00;0.00;;;;;;;6.84;100.00;98585.00;4961846;28;20121;-79
2023/11/09 08:02:37;;;;;;;0.00;0.00;;;;;;;7.05;100.00;98605.41;4963658;28;20451;-79
2023/11/09 08:05:04;;;;;;;0.00;0.00;;;;;;;7.02;100.00;98583.44;4963473;28;20054;-77
2023/11/09 08:07:30;;;;;;;0.00;0.00;;;;;;;6.95;100.00;98560.13;4933745;28;20506;-78
2023/11/09 08:09:56;;;;;;;0.00;0.00;;;;;;;7.10;100.00;98570.03;4958684;28;20121;-77
2023/11/09 08:12:23;;;;;;;0.00;0.00;;;;;;;7.15;100.00;98567.28;4928319;28;20057;-76
2023/11/09 08:14:49;;;;;;;0.00;0.00;;;;;;;7.31;100.00;98580.69;4981331;28;20461;-77
2023/11/09 08:17:14;;;;;;;0.00;0.00;;;;;;;7.52;100.00;98586.69;4929068;28;20047;-78
2023/11/09 08:19:40;;;;;;;0.00;0.00;;;;;;;7.60;100.00;98587.97;4967309;28;20022;-77
2023/11/09 08:22:07;;;;;;;0.00;0.00;;;;;;;7.63;100.00;98590.09;4943577;28;20050;-78
2023/11/09 08:24:33;;;;;;;0.00;0.00;;;;;;;7.59;100.00;98575.44;4958698;28;20153;-78
2023/11/09 08:26:59;;;;;;;0.00;0.00;;;;;;;7.31;100.00;98546.13;4977058;28;20438;-78
2023/11/09 08:29:24;;;;;;;0.00;0.00;;;;;;;7.37;100.00;98563.19;4980921;28;20022;-78
2023/11/09 08:31:51;;;;;;;0.00;0.00;;;;;;;7.19;100.00;98537.59;4953341;28;20054;-78
2023/11/09 08:34:16;;;;;;;0.00;0.00;;;;;;;7.33;100.00;98565.69;4970035;28;20030;-77
2023/11/09 08:36:54;;;;;;;;;;;;;;;;;;;;;
2023/11/09 08:39:20;;;;;;;0.00;0.00;;;;;;;7.39;100.00;98552.03;4973152;28;20036;-78
2023/11/09 08:41:46;;;;;;;0.00;0.00;;;;;;;8.48;100.00;98550.22;4985224;28;20022;-76
2023/11/09 08:44:12;;;;;;;0.00;0.00;;;;;;;11.08;88.85;98575.25;4948917;28;20492;-77
2023/11/09 08:46:37;;;;;;;0.00;0.00;;;;;;;13.32;75.00;98554.06;4953558;28;20058;-77
2023/11/09 08:49:13;;;;;;;0.00;0.00;;;;;;;15.16;64.27;98534.16;4973924;28;20088;-76
2023/11/09 08:51:43;;;;;;;0.00;0.00;;;;;;;16.98;54.92;98552.13;4970584;28;20025;-77
2023/11/09 08:54:10;;;;;;;0.00;0.00;;;;;;;17.42;50.65;98543.75;4971534;28;21344;-78
2023/11/09 08:56:38;;;;;;;0.00;0.00;;;;;;;17.70;48.70;98531.78;4978766;28;20412;-77
2023/11/09 08:59:07;;;;;;;0.00;0.00;;;;;;;18.44;47.92;98562.25;4951349;28;20056;-78
2023/11/09 09:01:35;;;;;;;0.00;0.00;;;;;;;19.11;45.69;98519.59;4989426;28;20633;-78
2023/11/09 09:04:00;;;;;;;0.00;0.00;;;;;;;18.97;44.59;98536.78;4973539;28;20050;-77
2023/11/09 09:06:26;;;;;;;0.00;0.00;;;;;;;18.76;44.75;98552.97;4969464;28;20030;-76
2023/11/09 09:08:55;;;;;;;0.00;0.00;;;;;;;19.04;43.52;98538.09;4955904;28;20037;-79
2023/11/09 09:11:20;;;;;;;0.00;0.00;;;;;;;17.50;45.82;98556.59;4970657;28;20039;-76
2023/11/09 09:13:46;;;;;;;0.00;0.00;;;;;;;15.80;49.50;98544.84;4972380;28;20032;-78
2023/11/09 09:16:15;;;;;;;0.00;0.00;;;;;;;14.66;51.05;98565.47;4950288;28;20492;-77
2023/11/09 09:18:42;;;;;;;0.00;0.00;;;;;;;12.96;55.19;98551.78;4972815;28;20029;-77
2023/11/09 09:21:08;;;;;;;0.00;0.00;;;;;;;11.96;59.57;98588.16;4975537;28;20044;-76
2023/11/09 09:23:38;;;;;;;0.00;0.00;;;;;;;10.92;63.83;98561.19;4973794;28;20022;-77
2023/11/09 09:26:04;;;;;;;0.00;0.00;;;;;;;10.19;67.08;98544.94;4968325;28;20138;-76
2023/11/09 09:28:29;;;;;;;0.00;0.00;;;;;;;9.89;68.85;98580.03;4978555;28;20113;-76
2023/11/09 09:30:55;;;;;;;0.08;0.08;;;;;;;9.58;71.02;98569.75;4949623;28;20455;-76
2023/11/09 09:33:20;;;;;;;0.00;0.00;;;;;;;9.45;72.99;98565.91;4982597;28;20029;-76
2023/11/09 09:35:47;;;;;;;0.00;0.00;;;;;;;9.45;72.69;98576.84;4934297;28;20034;-77
2023/11/09 09:38:15;;;;;;;0.00;0.00;;;;;;;9.43;73.22;98577.13;4954538;28;20030;-75
2023/11/09 09:40:41;;;;;;;0.00;0.00;;;;;;;9.33;73.11;98557.41;4938182;28;20038;-75
2023/11/09 09:43:13;;;;;;;0.00;0.00;;;;;;;9.36;73.55;98546.72;4976336;28;20029;-77
2023/11/09 09:45:40;;;;;;;0.00;0.00;;;;;;;9.63;72.94;98577.03;4973585;28;20399;-77
2023/11/09 09:48:09;;;;;;;0.00;0.00;;;;;;;9.67;72.64;98564.38;4984159;28;20034;-77
2023/11/09 09:50:37;;;;;;;0.00;0.00;;;;;;;9.77;71.66;98566.91;4983257;28;20180;-78
2023/11/09 09:53:08;;;;;;;0.10;0.10;;;;;;;9.64;71.64;98554.88;4970675;28;20046;-76
2023/11/09 09:55:37;;;;;;;0.00;0.00;;;;;;;9.57;72.24;98547.09;4947132;28;20065;-77
2023/11/09 09:58:06;;;;;;;0.00;0.00;;;;;;;9.52;72.20;98543.66;4967254;28;20030;-78
2023/11/09 10:00:37;;;;;;;0.00;0.00;;;;;;;9.32;72.76;98534.00;4977937;28;20366;-78
2023/11/09 10:03:06;;;;;;;0.00;0.00;;;;;;;9.34;73.25;98542.69;4985166;28;20109;-76
2023/11/09 10:05:33;;;;;;;0.00;0.00;;;;;;;9.32;72.97;98550.38;4957350;28;20077;-76
2023/11/09 10:08:15;;;;;;;0.00;0.00;;;;;;;9.40;73.51;98552.38;4964984;28;20030;-77
2023/11/09 10:10:44;;;;;;;0.00;0.00;;;;;;;9.39;73.30;98539.84;4987754;28;20022;-77
2023/11/09 10:13:13;;;;;;;0.00;0.00;;;;;;;9.46;73.27;98550.34;4957435;28;20045;-77
2023/11/09 10:15:43;;;;;;;0.00;0.00;;;;;;;9.40;72.88;98544.19;4967630;28;20029;-78
2023/11/09 10:18:12;;;;;;;0.00;0.00;;;;;;;9.74;73.31;98556.59;4937231;28;20499;-78
2023/11/09 10:20:38;;;;;;;0.00;0.00;;;;;;;13.14;65.63;98547.84;4965768;28;20036;-78
2023/11/09 10:23:08;;;;;;;0.00;0.00;;;;;;;17.37;50.83;98533.00;4934824;28;20420;-77
2023/11/09 10:25:36;;;;;;;0.00;0.00;;;;;;;21.09;41.56;98550.03;4985937;28;20026;-76
2023/11/09 10:28:01;;;;;;;0.00;0.00;;;;;;;22.51;36.25;98551.81;4964903;28;21566;-78
2023/11/09 10:30:41;;;;;;;0.00;0.00;;;;;;;23.86;33.71;98542.03;4939084;28;20042;-77
2023/11/09 10:33:17;;;;;;;0.08;0.08;;;;;;;24.66;32.04;98550.16;4980785;28;20049;-77
2023/11/09 10:35:43;;;;;;;0.00;0.00;;;;;;;24.45;33.01;98549.03;4982071;28;20022;-77
2023/11/09 10:38:12;;;;;;;0.00;0.00;;;;;;;25.74;30.42;98552.19;4954117;28;20456;-76
2023/11/09 10:40:41;;;;;;;0.00;0.00;;;;;;;25.68;29.04;98551.06;4974751;28;20061;-77
2023/11/09 10:43:08;;;;;;;0.00;0.00;;;;;;;25.60;28.89;98545.53;4965809;28;20026;-78
2023/11/09 10:45:36;;;;;;;0.00;0.00;;;;;;;25.13;28.76;98545.09;4963774;28;20027;-77
2023/11/09 10:48:32;;;;;;;0.00;0.00;;;;;;;25.14;29.37;98535.47;4964626;28;20110;-77
2023/11/09 10:51:02;;;;;;;0.00;0.00;;;;;;;26.08;28.28;98534.69;4966328;28;20061;-78
2023/11/09 10:53:32;;;;;;;0.00;0.00;;;;;;;25.96;27.75;98534.00;4975624;28;20076;-76
2023/11/09 10:55:59;;;;;;;0.00;0.00;;;;;;;25.47;27.77;98535.28;4957705;28;20026;-77
2023/11/09 10:58:26;;;;;;;0.00;0.00;;;;;;;25.49;27.81;98550.41;4956723;28;20120;-77
2023/11/09 11:00:57;;;;;;;0.00;0.00;;;;;;;25.76;27.93;98530.19;4943166;28;20026;-79
2023/11/09 11:03:33;;;;;;;0.00;0.00;;;;;;;25.73;28.05;98519.81;4973075;28;20112;-77
2023/11/09 11:06:05;;;;;;;0.00;0.00;;;;;;;25.84;27.47;98528.13;4976946;28;20057;-77
2023/11/09 11:08:39;;;;;;;0.00;0.00;;;;;;;25.89;27.25;98508.06;4969485;28;20026;-76
2023/11/09 11:11:07;;;;;;;0.00;0.00;;;;;;;25.84;27.80;98536.50;4979575;28;20026;-78
2023/11/09 11:13:35;;;;;;;0.00;0.00;;;;;;;26.13;26.68;98525.81;4967352;28;20042;-75
2023/11/09 11:16:20;;;;;;;0.00;0.00;;;;;;;25.03;27.79;98535.56;4978288;28;20624;-77
2023/11/09 11:19:13;;;;;;;0.00;0.00;;;;;;;23.82;29.31;98516.09;4959479;28;20666;-77
2023/11/09 11:22:04;;;;;;;0.00;0.00;;;;;;;24.82;28.33;98533.69;4967966;28;20053;-78
2023/11/09 11:25:11;;;;;;;0.00;0.00;;;;;;;25.44;26.94;98508.91;4949656;28;21996;-77
2023/11/09 11:27:45;;;;;;;0.00;0.00;;;;;;;25.89;27.05;98522.88;4978550;28;20524;-76
2023/11/09 11:30:17;;;;;;;0.00;0.00;;;;;;;26.33;26.87;98488.75;4966720;28;20026;-76
2023/11/09 11:32:45;;;;;;;0.00;0.00;;;;;;;24.47;28.38;98492.75;4967369;28;20138;-76
2023/11/09 11:35:11;;;;;;;0.00;0.00;;;;;;;21.77;31.23;98465.53;4984492;28;20109;-75
2023/11/09 11:37:37;;;;;;;0.00;0.00;;;;;;;21.52;32.78;98454.28;4962362;28;20388;-77
2023/11/09 11:40:08;;;;;;;0.00;0.00;;;;;;;23.45;31.02;98450.41;4951054;28;20033;-76
2023/11/09 11:42:34;;;;;;;0.00;0.00;;;;;;;25.06;28.31;98466.84;4957330;28;20031;-77
2023/11/09 11:45:03;;;;;;;0.00;0.00;;;;;;;22.89;29.67;98432.50;4976269;28;20112;-77
2023/11/09 11:47:31;;;;;;;0.00;0.00;;;;;;;21.47;32.01;98443.50;4969338;28;20026;-78
2023/11/09 11:50:08;;;;;;;0.00;0.00;;;;;;;18.94;35.19;98420.41;4946505;28;20092;-80
2023/11/09 11:52:35;;;;;;;0.00;0.00;;;;;;;18.85;37.76;98451.09;4964256;28;20050;-77
2023/11/09 11:55:04;;;;;;;0.00;0.00;;;;;;;20.25;36.88;98427.34;4967701;28;20089;-75